createdAt,value
2022-11-12T00:02:11.671Z,10.60
2022-11-12T00:04:58.390Z,11.02
2022-11-12T00:07:45.879Z,10.25
2022-11-12T00:10:32.974Z,8.77
2022-11-12T00:13:19.340Z,14.02
2022-11-12T00:16:06.425Z,9.02
2022-11-12T00:18:52.868Z,9.48
2022-11-12T00:21:39.139Z,10.85
2022-11-12T00:24:26.746Z,8.85
2022-11-12T00:27:13.198Z,8.05
2022-11-12T00:29:59.645Z,8.77
2022-11-12T00:32:46.090Z,10.60
2022-11-12T00:35:33.404Z,7.80
2022-11-12T00:38:19.607Z,5.63
2022-11-12T00:41:07.651Z,8.40
2022-11-12T00:43:54.170Z,6.22
2022-11-12T00:46:40.357Z,6.63
2022-11-12T00:49:26.764Z,6.65
2022-11-12T00:52:12.943Z,6.63
2022-11-12T00:54:59.238Z,6.80
2022-11-12T00:57:46.993Z,4.82
2022-11-12T01:00:33.374Z,8.65
2022-11-12T01:03:19.761Z,5.32
2022-11-12T01:06:07.605Z,8.73
2022-11-12T01:08:55.985Z,6.07
2022-11-12T01:11:42.792Z,4.82
2022-11-12T01:14:30.643Z,9.32
2022-11-12T01:17:17.197Z,4.82
2022-11-12T01:20:03.521Z,6.43
2022-11-12T01:22:49.905Z,4.80
2022-11-12T01:25:38.897Z,6.32
2022-11-12T01:28:25.470Z,7.60
2022-11-12T01:31:17.447Z,7.85
2022-11-12T01:34:06.044Z,7.63
2022-11-12T01:36:52.506Z,6.07
2022-11-12T01:39:38.897Z,3.25
2022-11-12T01:42:26.637Z,6.35
2022-11-12T01:45:16.610Z,8.80
2022-11-12T01:48:05.012Z,5.45
2022-11-12T01:50:51.976Z,8.30
2022-11-12T01:53:44.599Z,5.65
2022-11-12T01:56:32.118Z,4.38
2022-11-12T01:59:23.549Z,6.80
2022-11-12T02:02:10.150Z,5.15
2022-11-12T02:04:58.960Z,4.60
2022-11-12T02:07:47.773Z,5.60
2022-11-12T02:10:35.917Z,5.18
2022-11-12T02:13:40.518Z,5.78
2022-11-12T02:16:29.959Z,6.13
2022-11-12T02:19:18.051Z,6.07
2022-11-12T02:22:06.079Z,4.53
2022-11-12T02:24:52.282Z,5.70
2022-11-12T02:27:38.783Z,7.40
2022-11-12T02:30:33.543Z,4.50
2022-11-12T02:33:19.770Z,4.20
2022-11-12T02:36:06.319Z,6.63
2022-11-12T02:38:54.349Z,5.32
2022-11-12T02:41:40.957Z,3.38
2022-11-12T02:44:27.449Z,7.82
2022-11-12T02:47:14.037Z,5.57
2022-11-12T02:50:00.343Z,5.60
2022-11-12T02:52:46.854Z,8.15
2022-11-12T02:55:34.614Z,8.27
2022-11-12T02:58:22.557Z,6.85
2022-11-12T03:01:09.289Z,6.78
2022-11-12T03:03:55.456Z,4.82
2022-11-12T03:06:42.560Z,3.85
2022-11-12T03:09:28.934Z,5.57
2022-11-12T03:12:16.585Z,7.28
2022-11-12T03:15:02.952Z,5.00
2022-11-12T03:17:49.247Z,5.45
2022-11-12T03:20:35.873Z,3.50
2022-11-12T03:23:22.390Z,7.22
2022-11-12T03:26:08.775Z,8.10
2022-11-12T03:28:56.896Z,3.67
2022-11-12T03:31:43.285Z,8.38
2022-11-12T03:34:29.722Z,16.58
2022-11-12T03:37:15.904Z,6.57
2022-11-12T03:40:02.179Z,4.78
2022-11-12T03:42:49.112Z,5.82
2022-11-12T03:45:36.900Z,3.90
2022-11-12T03:48:23.780Z,3.90
2022-11-12T03:51:12.228Z,5.97
2022-11-12T03:53:58.601Z,7.95
2022-11-12T03:56:45.000Z,7.65
2022-11-12T03:59:31.776Z,3.90
2022-11-12T04:02:19.394Z,4.60
2022-11-12T04:05:24.473Z,7.45
2022-11-12T04:08:34.758Z,5.18
2022-11-12T04:11:21.372Z,5.10
2022-11-12T04:14:07.862Z,5.80
2022-11-12T04:17:11.807Z,6.20
2022-11-12T04:20:16.937Z,5.90
2022-11-12T04:23:03.431Z,5.60
2022-11-12T04:26:07.528Z,5.90
2022-11-12T04:29:11.323Z,4.72
2022-11-12T04:31:57.652Z,5.38
2022-11-12T04:34:44.181Z,5.55
2022-11-12T04:37:44.473Z,6.75
2022-11-12T04:40:48.805Z,8.13
2022-11-12T04:43:52.010Z,4.38
2022-11-12T04:46:38.587Z,4.85
2022-11-12T04:49:25.008Z,7.70
2022-11-12T04:52:11.449Z,8.60
2022-11-12T04:54:59.735Z,6.90
2022-11-12T04:57:45.995Z,5.70
2022-11-12T05:00:32.295Z,7.13
2022-11-12T05:03:18.895Z,5.75
2022-11-12T05:06:27.962Z,6.70
2022-11-12T05:09:14.527Z,4.00
2022-11-12T05:12:02.354Z,8.27
2022-11-12T05:14:48.947Z,7.03
2022-11-12T05:17:35.345Z,4.80
2022-11-12T05:20:21.805Z,8.57
2022-11-12T05:23:08.113Z,8.52
2022-11-12T05:25:54.831Z,6.10
2022-11-12T05:28:42.558Z,6.47
2022-11-12T05:31:29.382Z,5.75
2022-11-12T05:34:21.571Z,6.40
2022-11-12T05:37:10.659Z,7.63
2022-11-12T05:39:57.179Z,8.85
2022-11-12T05:42:43.490Z,5.65
2022-11-12T05:45:31.153Z,5.40
2022-11-12T05:48:21.608Z,7.50
2022-11-12T05:51:14.098Z,4.30
2022-11-12T05:54:02.266Z,8.60
2022-11-12T05:56:49.176Z,8.55
2022-11-12T05:59:36.357Z,7.18
2022-11-12T06:02:24.365Z,8.30
2022-11-12T06:05:11.171Z,6.18
2022-11-12T06:07:58.002Z,7.05
2022-11-12T06:10:50.195Z,8.70
2022-11-12T06:13:37.368Z,11.02
2022-11-12T06:16:23.839Z,7.40
2022-11-12T06:19:12.022Z,5.68
2022-11-12T06:21:58.285Z,5.55
2022-11-12T06:24:45.048Z,4.65
2022-11-12T06:27:31.191Z,8.15
2022-11-12T06:30:21.638Z,9.15
2022-11-12T06:33:10.752Z,8.50
2022-11-12T06:36:03.931Z,12.02
2022-11-12T06:38:50.583Z,8.25
2022-11-12T06:41:36.749Z,10.02
2022-11-12T06:44:22.976Z,7.68
2022-11-12T06:47:09.888Z,8.07
2022-11-12T06:49:56.422Z,11.48
2022-11-12T06:52:44.126Z,6.15
2022-11-12T06:55:30.391Z,6.15
2022-11-12T06:58:16.601Z,7.05
2022-11-12T07:01:12.365Z,8.32
2022-11-12T07:03:59.041Z,8.27
2022-11-12T07:06:45.389Z,8.73
2022-11-12T07:09:33.356Z,10.63
2022-11-12T07:12:19.775Z,9.80
2022-11-12T07:15:07.338Z,8.02
2022-11-12T07:17:53.574Z,9.00
2022-11-12T07:20:39.819Z,6.95
2022-11-12T07:23:26.238Z,10.68
2022-11-12T07:26:17.931Z,13.05
2022-11-12T07:29:04.511Z,8.80
2022-11-12T07:31:50.632Z,6.40
2022-11-12T07:34:36.825Z,9.77
2022-11-12T07:37:22.976Z,8.00
2022-11-12T07:40:09.960Z,9.32
2022-11-12T07:43:00.080Z,10.77
2022-11-12T07:45:46.776Z,7.60
2022-11-12T07:48:33.489Z,10.35
2022-11-12T07:51:21.742Z,6.72
2022-11-12T07:54:08.397Z,8.40
2022-11-12T07:56:54.647Z,10.63
2022-11-12T07:59:46.162Z,8.95
2022-11-12T08:02:32.891Z,11.00
2022-11-12T08:05:21.486Z,7.38
2022-11-12T08:08:08.108Z,9.30
2022-11-12T08:10:56.573Z,10.90
2022-11-12T08:13:43.203Z,6.78
2022-11-12T08:16:31.007Z,9.55
2022-11-12T08:19:17.532Z,7.88
2022-11-12T08:22:03.846Z,10.68
2022-11-12T08:24:50.125Z,10.40
2022-11-12T08:27:36.767Z,12.82
2022-11-12T08:30:23.378Z,10.23
2022-11-12T08:33:11.204Z,12.02
2022-11-12T08:35:57.713Z,15.15
2022-11-12T08:38:44.469Z,11.50
2022-11-12T08:41:30.764Z,6.95
2022-11-12T08:44:17.039Z,16.42
2022-11-12T08:47:03.328Z,9.77
2022-11-12T08:49:50.947Z,10.30
2022-11-12T08:52:37.155Z,13.93
2022-11-12T08:55:23.438Z,12.43
2022-11-12T08:58:10.932Z,13.15
2022-11-12T09:00:58.677Z,17.23
2022-11-12T09:03:45.252Z,10.80
2022-11-12T09:06:32.993Z,9.80
2022-11-12T09:09:19.590Z,15.95
2022-11-12T09:12:13.689Z,14.93
2022-11-12T09:15:35.836Z,13.93
2022-11-12T09:18:13.530Z,17.63
2022-11-12T09:21:04.521Z,13.35
2022-11-12T09:23:52.037Z,13.20
2022-11-12T09:26:38.279Z,15.52
2022-11-12T09:29:24.786Z,15.70
2022-11-12T09:32:11.185Z,24.73
2022-11-12T09:34:57.839Z,14.45
2022-11-12T09:37:44.579Z,18.77
2022-11-12T09:40:45.115Z,18.38
2022-11-12T09:43:35.164Z,20.20
2022-11-12T09:46:29.744Z,21.90
2022-11-12T09:49:20.298Z,22.80
2022-11-12T09:52:15.554Z,20.40
2022-11-12T09:55:14.469Z,18.02
2022-11-12T09:58:02.517Z,20.90
2022-11-12T10:00:55.908Z,23.92
2022-11-12T10:03:54.008Z,20.57
2022-11-12T10:06:50.324Z,17.98
2022-11-12T10:09:48.141Z,21.17
2022-11-12T10:12:50.035Z,19.00
2022-11-12T10:16:09.197Z,21.48
2022-11-12T10:19:21.444Z,14.48
2022-11-12T10:22:21.173Z,17.60
2022-11-12T10:25:15.951Z,19.25
2022-11-12T10:28:09.726Z,21.25
2022-11-12T10:31:03.382Z,19.63
2022-11-12T10:36:39.576Z,17.83
2022-11-12T10:39:37.163Z,17.17
2022-11-12T10:42:24.654Z,20.20
2022-11-12T10:45:21.851Z,17.90
2022-11-12T10:48:26.939Z,13.82
2022-11-12T10:51:26.861Z,15.45
2022-11-12T10:54:23.241Z,14.50
2022-11-12T10:57:21.948Z,19.05
2022-11-12T11:00:20.562Z,19.08
2022-11-12T11:03:16.698Z,19.13
2022-11-12T11:06:06.519Z,12.23
2022-11-12T11:08:55.026Z,17.65
2022-11-12T11:11:50.507Z,18.27
2022-11-12T11:14:38.324Z,19.10
2022-11-12T11:17:24.687Z,13.60
2022-11-12T11:20:19.927Z,13.73
2022-11-12T11:23:17.981Z,17.40
2022-11-12T11:26:17.690Z,18.55
2022-11-12T11:29:21.020Z,16.52
2022-11-12T11:32:18.750Z,15.95
2022-11-12T11:35:19.245Z,14.43
2022-11-12T11:38:32.803Z,16.05
2022-11-12T11:41:41.804Z,13.88
2022-11-12T11:44:38.662Z,17.70
2022-11-12T11:47:59.403Z,18.42
2022-11-12T11:50:53.455Z,15.52
2022-11-12T11:53:53.023Z,16.73
2022-11-12T11:56:43.616Z,18.52
2022-11-12T11:59:42.794Z,19.55
2022-11-12T12:02:50.460Z,16.60
2022-11-12T12:05:44.148Z,15.25
2022-11-12T12:11:31.480Z,15.35
2022-11-12T12:14:31.562Z,12.65
2022-11-12T12:17:32.374Z,16.90
2022-11-12T12:20:23.455Z,18.35
2022-11-12T12:23:20.822Z,17.38
2022-11-12T12:26:14.195Z,14.65
2022-11-12T12:31:59.603Z,21.65
2022-11-12T12:34:48.899Z,17.33
2022-11-12T12:37:42.138Z,16.38
2022-11-12T12:40:35.551Z,17.00
2022-11-12T12:43:28.869Z,14.95
2022-11-12T12:46:21.555Z,17.88
2022-11-12T12:49:12.133Z,19.67
2022-11-12T12:51:59.712Z,16.85
2022-11-12T12:54:57.139Z,21.67
2022-11-12T12:57:43.928Z,17.08
2022-11-12T13:00:35.790Z,17.42
2022-11-12T13:03:59.551Z,18.13
2022-11-12T13:06:54.853Z,19.40
2022-11-12T13:09:41.577Z,20.33
2022-11-12T13:13:00.873Z,17.65
2022-11-12T13:15:48.750Z,18.05
2022-11-12T13:19:04.042Z,20.73
2022-11-12T13:22:28.717Z,21.90
2022-11-12T13:25:27.883Z,15.93
2022-11-12T13:28:15.297Z,18.42
2022-11-12T13:31:04.285Z,15.60
2022-11-12T13:33:50.786Z,17.58
2022-11-12T13:36:38.918Z,16.77
2022-11-12T13:39:26.279Z,15.07
2022-11-12T13:42:33.115Z,15.90
2022-11-12T13:45:21.612Z,16.30
2022-11-12T13:48:09.747Z,16.63
2022-11-12T13:50:59.849Z,17.33
2022-11-12T13:53:48.574Z,15.32
2022-11-12T13:56:37.417Z,12.85
2022-11-12T13:59:25.600Z,20.27
2022-11-12T14:02:22.151Z,14.23
2022-11-12T14:05:15.697Z,16.38
2022-11-12T14:08:14.911Z,18.27
2022-11-12T14:11:18.235Z,12.40
2022-11-12T14:14:13.225Z,16.93
2022-11-12T14:17:12.635Z,14.65
2022-11-12T14:20:20.844Z,15.40
2022-11-12T14:23:13.628Z,10.75
2022-11-12T14:26:00.287Z,15.10
2022-11-12T14:28:56.769Z,16.00
2022-11-12T14:31:43.427Z,13.20
2022-11-12T14:34:31.560Z,12.32
2022-11-12T14:37:38.463Z,8.30
2022-11-12T14:40:31.573Z,16.40
2022-11-12T14:43:30.587Z,14.52
2022-11-12T14:46:25.622Z,12.25
2022-11-12T14:49:19.251Z,14.30
2022-11-12T14:52:10.761Z,13.25
2022-11-12T14:54:59.868Z,17.13
2022-11-12T14:57:46.459Z,17.20
2022-11-12T15:00:42.347Z,20.65
2022-11-12T15:03:34.191Z,13.00
2022-11-12T15:06:29.099Z,17.70
2022-11-12T15:09:21.667Z,14.70
2022-11-12T15:12:12.631Z,15.35
2022-11-12T15:15:10.305Z,15.02
2022-11-12T15:18:01.695Z,14.35
2022-11-12T15:21:07.837Z,12.45
2022-11-12T15:24:01.391Z,15.68
2022-11-12T15:26:50.555Z,17.92
2022-11-12T15:29:37.181Z,16.38
2022-11-12T15:32:34.632Z,17.88
2022-11-12T15:35:34.855Z,17.73
2022-11-12T15:38:26.938Z,15.63
2022-11-12T15:41:24.939Z,13.48
2022-11-12T15:44:12.178Z,18.20
2022-11-12T15:46:59.854Z,20.25
2022-11-12T15:49:51.006Z,17.48
2022-11-12T15:52:37.356Z,17.92
2022-11-12T15:55:25.733Z,20.95
2022-11-12T15:58:17.300Z,19.58
2022-11-12T16:01:05.076Z,19.30
2022-11-12T16:03:51.459Z,19.48
2022-11-12T16:06:37.856Z,22.33
2022-11-12T16:09:24.133Z,22.40
2022-11-12T16:12:12.916Z,26.70
2022-11-12T16:15:00.197Z,26.30
2022-11-12T16:17:47.298Z,18.85
2022-11-12T16:20:35.501Z,22.20
2022-11-12T16:23:21.919Z,22.88
2022-11-12T16:26:10.121Z,29.60
2022-11-12T16:28:58.449Z,30.67
2022-11-12T16:31:45.301Z,25.13
2022-11-12T16:34:31.840Z,25.02
2022-11-12T16:37:18.145Z,26.27
2022-11-12T16:40:04.431Z,24.08
2022-11-12T16:42:51.039Z,27.92
2022-11-12T16:45:41.283Z,29.67
2022-11-12T16:48:27.803Z,25.60
2022-11-12T16:51:18.848Z,22.33
2022-11-12T16:54:05.553Z,27.52
2022-11-12T16:56:52.174Z,26.02
2022-11-12T16:59:38.619Z,34.58
2022-11-12T17:02:26.362Z,29.90
2022-11-12T17:05:16.800Z,31.05
2022-11-12T17:08:03.396Z,28.42
2022-11-12T17:10:49.841Z,23.52
2022-11-12T17:13:37.343Z,25.65
2022-11-12T17:16:23.909Z,23.55
2022-11-12T17:19:12.180Z,31.63
2022-11-12T17:21:58.566Z,24.77
2022-11-12T17:24:44.777Z,26.13
2022-11-12T17:27:31.019Z,29.85
2022-11-12T17:30:17.729Z,26.80
2022-11-12T17:33:03.987Z,27.50
2022-11-12T17:35:51.817Z,29.88
2022-11-12T17:38:38.241Z,31.10
2022-11-12T17:41:24.823Z,42.65
2022-11-12T17:44:15.956Z,29.30
2022-11-12T17:47:03.030Z,36.28
2022-11-12T17:49:49.297Z,38.63
2022-11-12T17:52:36.883Z,39.17
2022-11-12T17:55:23.244Z,34.25
2022-11-12T17:58:09.872Z,36.33
2022-11-12T18:00:56.853Z,37.92
2022-11-12T18:03:44.951Z,41.75
2022-11-12T18:06:32.932Z,39.05
2022-11-12T18:09:20.534Z,36.50
2022-11-12T18:12:07.104Z,47.88
2022-11-12T18:14:53.619Z,39.22
2022-11-12T18:17:40.126Z,39.97
2022-11-12T18:20:26.608Z,33.63
2022-11-12T18:23:14.262Z,37.35
2022-11-12T18:26:03.046Z,35.90
2022-11-12T18:28:52.723Z,34.92
2022-11-12T18:31:40.444Z,41.67
2022-11-12T18:34:26.855Z,37.28
2022-11-12T18:37:13.462Z,38.38
2022-11-12T18:39:59.698Z,42.38
2022-11-12T18:42:47.581Z,39.03
2022-11-12T18:45:34.171Z,43.67
2022-11-12T18:48:20.453Z,41.40
2022-11-12T18:51:08.951Z,37.97
2022-11-12T18:53:55.421Z,51.28
2022-11-12T18:56:42.628Z,40.30
2022-11-12T18:59:32.500Z,34.20
2022-11-12T19:02:19.279Z,40.20
2022-11-12T19:05:06.081Z,35.42
2022-11-12T19:07:52.597Z,40.70
2022-11-12T19:10:39.688Z,42.20
2022-11-12T19:13:26.742Z,37.25
2022-11-12T19:16:17.227Z,44.15
2022-11-12T19:19:06.739Z,39.50
2022-11-12T19:21:53.469Z,42.30
2022-11-12T19:24:39.711Z,35.40
2022-11-12T19:27:25.852Z,34.53
2022-11-12T19:30:13.095Z,37.40
2022-11-12T19:33:00.798Z,36.45
2022-11-12T19:35:47.103Z,44.30
2022-11-12T19:38:33.902Z,47.13
2022-11-12T19:41:20.413Z,44.75
2022-11-12T19:44:06.810Z,45.70
2022-11-12T19:46:53.093Z,38.70
2022-11-12T19:49:40.644Z,46.50
2022-11-12T19:52:26.837Z,41.80
2022-11-12T19:55:13.565Z,41.80
2022-11-12T19:58:01.113Z,43.97
2022-11-12T20:00:47.390Z,43.88
2022-11-12T20:03:34.653Z,48.17
2022-11-12T20:06:25.488Z,44.85
2022-11-12T20:09:12.061Z,41.03
2022-11-12T20:11:58.349Z,44.08
2022-11-12T20:14:44.647Z,37.53
2022-11-12T20:17:33.032Z,44.92
2022-11-12T20:20:19.302Z,35.85
2022-11-12T20:23:07.153Z,45.88
2022-11-12T20:25:54.179Z,47.40
2022-11-12T20:28:42.230Z,47.85
2022-11-12T20:31:28.518Z,46.20
2022-11-12T20:34:14.973Z,38.08
2022-11-12T20:37:01.419Z,46.40
2022-11-12T20:39:49.309Z,43.95
2022-11-12T20:42:35.716Z,51.00
2022-11-12T20:45:21.826Z,40.17
2022-11-12T20:48:08.137Z,36.60
2022-11-12T20:51:22.587Z,40.60
2022-11-12T20:54:10.114Z,39.95
2022-11-12T20:56:59.748Z,37.75
2022-11-12T20:59:46.496Z,36.90
2022-11-12T21:02:33.925Z,48.30
2022-11-12T21:05:20.198Z,43.72
2022-11-12T21:08:06.750Z,39.70
2022-11-12T21:10:53.486Z,36.58
2022-11-12T21:13:42.145Z,44.63
2022-11-12T21:16:28.561Z,40.90
2022-11-12T21:19:14.826Z,42.70
2022-11-12T21:22:01.047Z,40.97
2022-11-12T21:24:47.373Z,40.10
2022-11-12T21:27:33.728Z,46.17
2022-11-12T21:30:21.613Z,39.97
2022-11-12T21:33:08.258Z,38.60
2022-11-12T21:35:54.644Z,40.15
2022-11-12T21:38:41.470Z,43.42
2022-11-12T21:41:28.979Z,41.38
2022-11-12T21:44:15.548Z,41.72
2022-11-12T21:47:03.199Z,36.40
2022-11-12T21:49:49.458Z,32.97
2022-11-12T21:52:35.874Z,42.83
2022-11-12T21:55:22.128Z,42.22
2022-11-12T21:58:08.724Z,39.75
2022-11-12T22:00:54.964Z,39.45
2022-11-12T22:03:42.650Z,38.00
2022-11-12T22:06:30.665Z,50.65
2022-11-12T22:09:17.120Z,40.33
2022-11-12T22:12:03.374Z,41.10
2022-11-12T22:14:49.594Z,38.10
2022-11-12T22:17:35.903Z,43.03
2022-11-12T22:20:23.518Z,40.35
2022-11-12T22:23:09.992Z,45.58
2022-11-12T22:25:58.002Z,48.60
2022-11-12T22:28:44.802Z,44.63
2022-11-12T22:31:32.856Z,45.35
2022-11-12T22:34:19.024Z,41.05
2022-11-12T22:37:06.660Z,45.70
2022-11-12T22:39:53.154Z,39.13
2022-11-12T22:42:39.556Z,41.38
2022-11-12T22:45:25.851Z,39.15
2022-11-12T22:48:12.143Z,44.72
2022-11-12T22:51:00.203Z,43.90
2022-11-12T22:53:48.403Z,38.40
2022-11-12T22:56:34.842Z,42.10
2022-11-12T22:59:21.422Z,42.95
2022-11-12T23:02:07.973Z,39.85
2022-11-12T23:04:54.521Z,48.58
2022-11-12T23:07:40.819Z,37.90
2022-11-12T23:10:28.675Z,43.13
2022-11-12T23:13:15.016Z,46.75
2022-11-12T23:16:01.438Z,44.50
2022-11-12T23:18:48.087Z,44.80
2022-11-12T23:21:34.296Z,52.97
2022-11-12T23:24:20.689Z,42.58
2022-11-12T23:27:08.475Z,44.08
2022-11-12T23:29:54.887Z,43.17
2022-11-12T23:32:41.200Z,40.00
2022-11-12T23:35:27.595Z,36.88
2022-11-12T23:38:13.930Z,41.70
2022-11-12T23:41:00.562Z,36.42
2022-11-12T23:43:48.327Z,43.17
2022-11-12T23:46:34.535Z,47.38
2022-11-12T23:49:20.891Z,46.10
2022-11-12T23:52:07.261Z,47.05
2022-11-12T23:54:53.486Z,42.75
2022-11-12T23:57:39.782Z,36.30
